TABS, Texas Automated Buoy System, NOAA HAZMAT, Ocean Observatory, Real Time Oceanographic Data Supporting Oil Spill Prevention and Response

Texas General Land Office  Texas General
 Land Office
 Oil Spill Prevention
 & Response
Texas Automated Buoy System
Real Time Ocean Observations
Supporting Oil Spill Prevention and Response since 1995
Geochemical and Environmental Research Group

TABS Buoy J -- Texas Automated Buoy System

TABS Buoy J Conditions at 04/23/2014 06:23 UTC (04/23/2014 01:23 CDT)
26° 11.4840'N   97° 3.0420'W
AA3900 DCS - sensor depth 2m
Anemometer height: 4m
Water Depth: 68 feet (20 meters)
Speed: 31.00 cm/s (0.60 kts) Direction: 80 °T (E) Water Temp: 21°C (70 °F)
System Voltage: 0.0 V Signal Strength: 0.0 dB Ping Count: 0
Wind: 4.3 m/s (8.4 kts)
          From 128°T (SE)
Air Temp: 22 °C (71 °F)
Relative Humidity:  N/A
Pressure: 1014.3 mb (29.95 inHg)

  


IMPORTANT: Notice to Mariners


Today's Meteorological Data (download)

   Date   |  Time  |  VEast   North    AirT  AtmPr     Gust   Comp   Tx   Ty    PAR   RelH
          |  (UTC) |  (m/s)|  (m/s)|   (°C)|  (mb) |  (m/s)|  (°M) |    |    |      |  (%) |
==========+========+=======+=======+=======+=======+=======+=======+====+====+======+======+
04/22/2014 00:00:00   -4.05    1.26    20.9 1014.95    5.25   111.3    3    0    0.0 -999.0
04/22/2014 00:30:00   -3.59    1.79    20.8 1014.95    4.95   118.7    3    0    0.0 -999.0
04/22/2014 01:00:00   -3.53    1.88    20.7 1016.14    4.81   120.1    3    0    0.0 -999.0
04/22/2014 01:30:00   -3.08    1.86    20.7 1016.27    4.49   125.7    2    0    0.0 -999.0
04/22/2014 02:00:00   -2.59    1.61    20.7 1016.42    3.67   129.3    2    0    0.0 -999.0
04/22/2014 02:30:00   -2.39    1.18    20.6 1017.01    3.39   119.5    2    0    0.0 -999.0
04/22/2014 03:00:00   -2.46    1.68    20.5 1016.98    3.55   126.2    2    0    0.0 -999.0
04/22/2014 03:30:00   -2.34    1.08    20.5 1017.29    3.28   121.0    2    0    0.0 -999.0
04/22/2014 04:00:00   -1.89    1.00    20.4 1017.62    2.92   132.2    2    0    0.0 -999.0
04/22/2014 04:30:00   -2.64    1.25    20.4 1017.71    3.58   127.0    2    0    0.0 -999.0
04/22/2014 05:00:00   -2.32    0.97    20.4 1018.01    3.33   124.6    2    0    0.0 -999.0
04/22/2014 05:30:00   -0.68    1.85    20.5 1018.07    2.87   143.8    2    0    0.0 -999.0
04/22/2014 06:00:00    0.20    1.50    20.4 1018.33    1.84   149.7    2    0    0.0 -999.0
04/22/2014 06:30:00    0.51    1.10    20.4 1017.89    2.06   166.2    2    0    0.0 -999.0
04/22/2014 07:00:00    0.87    3.34    20.5 1017.00    4.34   166.0    2    0    0.0 -999.0
04/22/2014 07:30:00   -3.31    3.30    20.5 1016.18    7.39   152.0    3    0    0.0 -999.0
04/22/2014 08:00:00   -6.37    1.64    20.5 1014.61    8.00   131.3    3    0    0.0 -999.0
04/22/2014 08:30:00   -6.24    2.17    20.5 1014.57    8.58   138.5    3    0    0.0 -999.0
04/22/2014 09:00:00   -1.43    3.40    20.5 1015.14    4.84   146.5    3    0    0.0 -999.0
04/22/2014 09:30:00   -1.01    0.31    20.6 1015.32    1.65   152.4    2    0    0.0 -999.0
04/22/2014 10:00:00   -1.32    0.02    20.4 1014.90    1.79   149.8    2    0    0.0 -999.0
04/22/2014 10:30:00   -1.70   -0.87    20.3 1015.23    2.68   147.6    2    0    0.0 -999.0
04/22/2014 11:00:00   -1.39   -0.87    20.2 1015.37    2.40   144.6    2    0    0.0 -999.0
04/22/2014 11:30:00   -1.05    0.28    20.1 1015.54    1.56   142.3    2    0    0.0 -999.0
04/22/2014 12:00:00   -0.40    1.24    20.1 1016.05    1.90   161.1    2    0    0.0 -999.0
04/22/2014 12:30:00   -0.67    1.33    20.2 1016.15    1.98   147.5    2    0    0.0 -999.0
04/22/2014 13:00:00   -0.57    0.84    20.2 1017.36    1.72   157.2    2    0    0.0 -999.0
04/22/2014 13:30:00   -1.04    0.75    20.3 1016.83    1.75   154.1    2    0    0.0 -999.0
04/22/2014 14:00:00   -0.93    1.18    20.4 1017.30    2.31   155.1    2    0    0.0 -999.0
04/22/2014 14:30:00   -0.54   -0.34    20.5 1017.75    0.95   150.7    2    0    0.0 -999.0
04/22/2014 15:00:00   -1.37    0.20    20.7 1018.29    1.78   157.0    2    0    0.0 -999.0
04/22/2014 15:30:00   -1.22   -0.45    20.8 1018.09    1.64   139.6    1    0    0.0 -999.0
04/22/2014 16:00:00   -1.63   -0.40    20.9 1017.16    2.10   124.5    2    0    0.0 -999.0
04/22/2014 16:30:00   -0.95    1.13    21.0 1017.12    1.97   141.6    2    0    0.0 -999.0
04/22/2014 17:00:00   -0.89    1.96    21.2 1017.05    2.67   150.6    2    0    0.0 -999.0
04/22/2014 17:30:00   -1.43    0.56    21.4 1017.16    2.03   142.5    2    0    0.0 -999.0
04/22/2014 18:00:00   -1.90    0.43    21.6 1016.81    2.49   139.2    2    0    0.0 -999.0
04/22/2014 18:30:00   -2.52   -0.20    21.6 1016.23    3.32   119.8    2    0    0.0 -999.0
04/22/2014 19:00:00   -2.73   -0.45    21.5 1016.17    3.53   107.4    2    0    0.0 -999.0
04/22/2014 19:30:00   -3.26    0.53    21.6 1015.42    3.97   109.4    2    0    0.0 -999.0
04/22/2014 20:00:00   -4.40    1.56    21.7 1015.38    5.40   115.0    3    0    0.0 -999.0
04/22/2014 20:30:00   -4.25    1.91    21.8 1015.25    5.40   113.2    3    0    0.0 -999.0
04/22/2014 21:00:00   -4.21    2.04    21.9 1014.73    5.43   113.2    3    0    0.0 -999.0
04/22/2014 21:30:00   -4.38    2.17    22.0 1014.13    5.70   114.0    3    0    0.0 -999.0
04/22/2014 22:00:00   -4.33    2.31    21.9 1013.90    6.08   111.0    3    0    0.0 -999.0
04/22/2014 22:30:00   -4.58    2.62    21.9 1014.37    6.20   109.1    3    0    0.0 -999.0
04/22/2014 23:00:00   -4.41    2.30    21.8 1014.37    5.85   110.8    3    0    0.0 -999.0
04/22/2014 23:30:00   -3.42    2.67    21.8 1014.33    5.12   118.2    3    0    0.0 -999.0